RYR5TN EDDN-EGSS
Flight info
| Callsign | RYR5TN |
|---|---|
| Flight time | N/A |
| Altitude | 38000 |
| Route | SULUS1G SULUS L604 BIGGE DCT NOGRO M40 RINIS |
| Aircraft | B738/M-SDE2E3FGHIRWXY/LB1 |
Departure
| Time | N/A |
|---|---|
| Airport | Nuremberg Airport (EDDN) |
Arrival
| Time | 2026-05-05 11:31 |
|---|---|
| Airport | London Stansted Airport (EGSS) |
| Time | Latitude | Longitude | Altitude | Speed | Heading |
|---|---|---|---|---|---|
| 2026-05-05 11:05 | 51.94047 | 2.79006 | 26363 ft | 367 kts | 261° |
| 2026-05-05 11:05 | 51.93768 | 2.74910 | 25986 ft | 366 kts | 261° |
| 2026-05-05 11:05 | 51.93486 | 2.70820 | 25604 ft | 364 kts | 261° |
| 2026-05-05 11:05 | 51.93204 | 2.66757 | 25235 ft | 363 kts | 262° |
| 2026-05-05 11:06 | 51.92923 | 2.62689 | 24864 ft | 364 kts | 261° |
| 2026-05-05 11:06 | 51.92643 | 2.58609 | 24486 ft | 363 kts | 262° |
| 2026-05-05 11:06 | 51.92363 | 2.54549 | 24108 ft | 361 kts | 262° |
| 2026-05-05 11:06 | 51.92085 | 2.50530 | 23712 ft | 360 kts | 262° |
| 2026-05-05 11:07 | 51.91805 | 2.46498 | 23310 ft | 358 kts | 262° |
| 2026-05-05 11:07 | 51.91528 | 2.42496 | 22895 ft | 356 kts | 261° |
| 2026-05-05 11:07 | 51.91249 | 2.38527 | 22491 ft | 354 kts | 261° |
| 2026-05-05 11:07 | 51.90970 | 2.34584 | 22128 ft | 351 kts | 261° |
| 2026-05-05 11:08 | 51.90717 | 2.30666 | 21758 ft | 349 kts | 265° |
| 2026-05-05 11:08 | 51.90598 | 2.26741 | 21410 ft | 349 kts | 266° |
| 2026-05-05 11:08 | 51.90531 | 2.22821 | 21055 ft | 348 kts | 268° |
| 2026-05-05 11:08 | 51.90468 | 2.18906 | 20707 ft | 347 kts | 266° |
| 2026-05-05 11:09 | 51.90396 | 2.15008 | 20351 ft | 346 kts | 267° |
| 2026-05-05 11:09 | 51.90316 | 2.11115 | 20010 ft | 345 kts | 267° |
| 2026-05-05 11:09 | 51.90228 | 2.07231 | 19664 ft | 346 kts | 266° |
| 2026-05-05 11:09 | 51.90137 | 2.03342 | 19320 ft | 346 kts | 266° |
| 2026-05-05 11:10 | 51.90043 | 1.99450 | 18971 ft | 346 kts | 266° |
| 2026-05-05 11:10 | 51.89948 | 1.95612 | 18630 ft | 346 kts | 266° |
| 2026-05-05 11:10 | 51.89849 | 1.91673 | 18282 ft | 346 kts | 267° |
| 2026-05-05 11:10 | 51.89817 | 1.87824 | 17896 ft | 347 kts | 273° |
| 2026-05-05 11:11 | 51.90110 | 1.83968 | 17582 ft | 343 kts | 278° |
| 2026-05-05 11:11 | 51.90487 | 1.80190 | 17273 ft | 338 kts | 279° |
| 2026-05-05 11:11 | 51.90876 | 1.76454 | 16976 ft | 334 kts | 279° |
| 2026-05-05 11:11 | 51.91256 | 1.72767 | 16696 ft | 331 kts | 279° |
| 2026-05-05 11:12 | 51.91625 | 1.69107 | 16407 ft | 328 kts | 278° |
| 2026-05-05 11:12 | 51.91986 | 1.65467 | 16128 ft | 326 kts | 278° |
| 2026-05-05 11:12 | 51.92339 | 1.61851 | 15861 ft | 324 kts | 278° |
| 2026-05-05 11:12 | 51.92686 | 1.58243 | 15591 ft | 323 kts | 278° |
| 2026-05-05 11:13 | 51.93029 | 1.54659 | 15319 ft | 322 kts | 278° |
| 2026-05-05 11:13 | 51.93370 | 1.51072 | 15045 ft | 321 kts | 278° |
| 2026-05-05 11:13 | 51.93708 | 1.47493 | 14773 ft | 321 kts | 278° |
| 2026-05-05 11:13 | 51.94045 | 1.43916 | 14501 ft | 321 kts | 279° |
| 2026-05-05 11:14 | 51.94379 | 1.40346 | 14225 ft | 321 kts | 278° |
| 2026-05-05 11:14 | 51.94713 | 1.36774 | 13955 ft | 320 kts | 279° |
| 2026-05-05 11:14 | 51.95044 | 1.33209 | 13668 ft | 320 kts | 279° |
| 2026-05-05 11:14 | 51.95376 | 1.29634 | 13366 ft | 320 kts | 279° |
| 2026-05-05 11:15 | 51.95705 | 1.26073 | 13076 ft | 319 kts | 278° |
| 2026-05-05 11:15 | 51.96032 | 1.22522 | 12805 ft | 318 kts | 279° |
| 2026-05-05 11:15 | 51.96357 | 1.18983 | 12520 ft | 317 kts | 279° |
| 2026-05-05 11:15 | 51.96679 | 1.15459 | 12239 ft | 315 kts | 279° |
| 2026-05-05 11:16 | 51.96999 | 1.11948 | 11977 ft | 314 kts | 279° |
| 2026-05-05 11:16 | 51.97315 | 1.08463 | 11712 ft | 312 kts | 278° |
| 2026-05-05 11:16 | 51.97630 | 1.04989 | 11445 ft | 310 kts | 279° |
| 2026-05-05 11:16 | 51.97941 | 1.01543 | 11185 ft | 308 kts | 279° |
| 2026-05-05 11:17 | 51.98249 | 0.98111 | 10923 ft | 306 kts | 279° |
| 2026-05-05 11:17 | 51.98555 | 0.94700 | 10659 ft | 304 kts | 279° |
| 2026-05-05 11:17 | 51.98857 | 0.91325 | 10399 ft | 301 kts | 278° |
| 2026-05-05 11:17 | 51.99154 | 0.87985 | 10140 ft | 297 kts | 279° |
| 2026-05-05 11:18 | 51.99348 | 0.85799 | 9970 ft | 295 kts | 278° |
| 2026-05-05 11:18 | 51.99635 | 0.82558 | 9939 ft | 283 kts | 279° |
| 2026-05-05 11:18 | 51.99867 | 0.79408 | 9509 ft | 286 kts | 270° |
| 2026-05-05 11:18 | 51.99504 | 0.75190 | 9210 ft | 281 kts | 261° |
| 2026-05-05 11:19 | 51.99281 | 0.73099 | 9108 ft | 276 kts | 261° |
| 2026-05-05 11:19 | 51.98953 | 0.70056 | 9004 ft | 270 kts | 261° |
| 2026-05-05 11:19 | 51.98631 | 0.67117 | 8977 ft | 259 kts | 261° |
| 2026-05-05 11:19 | 51.98324 | 0.64302 | 8965 ft | 248 kts | 261° |
| 2026-05-05 11:20 | 51.98028 | 0.61614 | 8966 ft | 236 kts | 261° |
| 2026-05-05 11:20 | 51.97745 | 0.59025 | 8968 ft | 231 kts | 261° |
| 2026-05-05 11:20 | 51.97465 | 0.56408 | 8833 ft | 244 kts | 261° |
| 2026-05-05 11:20 | 51.97164 | 0.53622 | 8483 ft | 253 kts | 261° |
| 2026-05-05 11:21 | 51.96855 | 0.50806 | 8163 ft | 255 kts | 261° |
| 2026-05-05 11:21 | 51.96545 | 0.47995 | 8003 ft | 251 kts | 261° |
| 2026-05-05 11:21 | 51.96240 | 0.45225 | 7992 ft | 248 kts | 261° |
| 2026-05-05 11:21 | 51.95944 | 0.42488 | 7990 ft | 246 kts | 261° |
| 2026-05-05 11:22 | 51.95652 | 0.39754 | 7993 ft | 247 kts | 261° |
| 2026-05-05 11:22 | 51.95352 | 0.36956 | 7664 ft | 259 kts | 261° |
| 2026-05-05 11:22 | 51.95046 | 0.34065 | 7315 ft | 262 kts | 261° |
| 2026-05-05 11:22 | 51.94735 | 0.31121 | 6954 ft | 266 kts | 261° |
| 2026-05-05 11:23 | 51.94419 | 0.28149 | 6595 ft | 269 kts | 261° |
| 2026-05-05 11:23 | 51.94100 | 0.25146 | 6219 ft | 272 kts | 261° |
| 2026-05-05 11:23 | 51.93775 | 0.22130 | 6012 ft | 268 kts | 261° |
| 2026-05-05 11:23 | 51.93464 | 0.19226 | 5990 ft | 257 kts | 261° |
| 2026-05-05 11:24 | 51.93006 | 0.16481 | 5981 ft | 252 kts | 239° |
| 2026-05-05 11:24 | 51.91879 | 0.14332 | 5999 ft | 249 kts | 225° |
| 2026-05-05 11:24 | 51.90695 | 0.12346 | 5978 ft | 248 kts | 226° |
| 2026-05-05 11:24 | 51.89476 | 0.10292 | 5597 ft | 257 kts | 225° |
| 2026-05-05 11:25 | 51.88231 | 0.08181 | 5225 ft | 261 kts | 225° |
| 2026-05-05 11:25 | 51.86976 | 0.06036 | 4929 ft | 262 kts | 226° |
| 2026-05-05 11:25 | 51.85730 | 0.03898 | 4665 ft | 261 kts | 226° |
| 2026-05-05 11:25 | 51.84493 | 0.01777 | 4399 ft | 257 kts | 226° |
| 2026-05-05 11:26 | 51.83276 | -0.00306 | 4125 ft | 252 kts | 226° |
| 2026-05-05 11:26 | 51.81942 | -0.02064 | 3841 ft | 247 kts | 201° |
| 2026-05-05 11:26 | 51.80290 | -0.02302 | 3567 ft | 237 kts | 161° |
| 2026-05-05 11:26 | 51.78944 | -0.00934 | 3349 ft | 229 kts | 131° |
| 2026-05-05 11:27 | 51.77827 | 0.00918 | 3121 ft | 232 kts | 131° |
| 2026-05-05 11:27 | 51.76819 | 0.02887 | 2864 ft | 224 kts | 112° |
| 2026-05-05 11:27 | 51.76678 | 0.05255 | 2571 ft | 207 kts | 69° |
| 2026-05-05 11:27 | 51.77499 | 0.06986 | 2395 ft | 190 kts | 36° |
| 2026-05-05 11:28 | 51.78494 | 0.08345 | 2209 ft | 186 kts | 43° |
| 2026-05-05 11:28 | 51.79407 | 0.09770 | 2056 ft | 178 kts | 43° |
| 2026-05-05 11:28 | 51.80264 | 0.11077 | 1994 ft | 161 kts | 42° |
| 2026-05-05 11:28 | 51.81044 | 0.12254 | 2008 ft | 151 kts | 42° |
| 2026-05-05 11:29 | 51.81804 | 0.13399 | 1963 ft | 154 kts | 42° |
| 2026-05-05 11:29 | 51.82581 | 0.14570 | 1781 ft | 150 kts | 42° |
| 2026-05-05 11:29 | 51.83329 | 0.15698 | 1581 ft | 144 kts | 41° |
| 2026-05-05 11:29 | 51.84071 | 0.16814 | 1401 ft | 145 kts | 43° |
| 2026-05-05 11:30 | 51.84812 | 0.17942 | 1195 ft | 148 kts | 41° |
| 2026-05-05 11:30 | 51.85570 | 0.19068 | 947 ft | 148 kts | 42° |
| 2026-05-05 11:30 | 51.86312 | 0.20188 | 751 ft | 144 kts | 43° |
| 2026-05-05 11:30 | 51.87042 | 0.21294 | 539 ft | 145 kts | 43° |
| 2026-05-05 11:31 | 51.87779 | 0.22400 | 364 ft | 143 kts | 41° |
| 2026-05-05 11:31 | 51.88458 | 0.23417 | 344 ft | 117 kts | 43° |
| 2026-05-05 11:31 | 51.88816 | 0.23983 | 348 ft | 40 kts | 56° |
| 2026-05-05 11:31 | 51.88906 | 0.24361 | 353 ft | 28 kts | 72° |
| 2026-05-05 11:32 | 51.88919 | 0.24457 | 355 ft | 2 kts | 87° |
| 2026-05-05 11:32 | 51.88918 | 0.24474 | 351 ft | 0 kts | 98° |
| 2026-05-05 11:33 | 51.88912 | 0.24507 | 355 ft | 11 kts | 110° |
| 2026-05-05 11:33 | 51.88965 | 0.24661 | 354 ft | 24 kts | 38° |
| 2026-05-05 11:33 | 51.89083 | 0.24838 | 355 ft | 23 kts | 43° |
| 2026-05-05 11:34 | 51.89196 | 0.25011 | 351 ft | 22 kts | 47° |
| 2026-05-05 11:34 | 51.89285 | 0.25209 | 351 ft | 21 kts | 46° |
| 2026-05-05 11:34 | 51.89391 | 0.25373 | 351 ft | 21 kts | 42° |
| 2026-05-05 11:34 | 51.89495 | 0.25529 | 355 ft | 21 kts | 43° |
| 2026-05-05 11:35 | 51.89603 | 0.25703 | 360 ft | 22 kts | 62° |
| 2026-05-05 11:35 | 51.89520 | 0.25880 | 358 ft | 22 kts | 137° |
| 2026-05-05 11:35 | 51.89418 | 0.26056 | 351 ft | 21 kts | 133° |
| 2026-05-05 11:35 | 51.89339 | 0.26188 | 354 ft | 7 kts | 150° |
| 2026-05-05 11:36 | 51.89323 | 0.26175 | 351 ft | 3 kts | 220° |
| 2026-05-05 11:36 | 51.89297 | 0.26135 | 356 ft | 3 kts | 223° |
| 2026-05-05 11:36 | 51.89294 | 0.26130 | 357 ft | 0 kts | 223° |